Time;durP1;ratioP1;P1;durP2;ratioP2;P2;SDS_P1;SDS_P2;PMS_P1;PMS_P2;Temp;Humidity;BMP_temperature;BMP_pressure;BME280_temperature;BME280_humidity;BME280_pressure;Samples;Min_cycle;Max_cycle;Signal;HPM_P1;HPM_P2
2022/10/12 00:01:01;;;;;;;6.38;2.80;;;8.20;99.90;;;;;;4975208;28;20030;-81
2022/10/12 00:03:27;;;;;;;6.10;2.72;;;8.20;99.90;;;;;;4971424;28;20466;-82
2022/10/12 00:06:26;;;;;;;6.60;3.28;;;8.20;99.90;;;;;;4970193;28;20471;-81
2022/10/12 00:08:54;;;;;;;6.70;2.85;;;8.20;99.90;;;;;;4955936;28;20466;-81
2022/10/12 00:11:23;;;;;;;5.57;2.70;;;8.20;99.90;;;;;;4959105;28;20058;-82
2022/10/12 00:13:49;;;;;;;5.70;2.65;;;8.20;99.90;;;;;;4974778;28;20027;-82
2022/10/12 00:16:18;;;;;;;5.28;2.72;;;8.10;99.90;;;;;;4964373;28;20085;-81
2022/10/12 00:18:44;;;;;;;6.97;3.08;;;8.10;99.90;;;;;;4958818;28;20034;-82
2022/10/12 00:21:13;;;;;;;5.65;2.75;;;8.10;99.90;;;;;;4974562;28;20060;-82
2022/10/12 00:23:42;;;;;;;7.10;2.50;;;8.00;99.90;;;;;;4984208;28;20085;-81
2022/10/12 00:26:13;;;;;;;6.63;2.60;;;8.10;99.90;;;;;;4980894;28;20035;-80
2022/10/12 00:28:39;;;;;;;4.18;2.10;;;8.00;99.90;;;;;;4977229;28;20492;-81
2022/10/12 00:31:13;;;;;;;5.00;2.75;;;8.00;99.90;;;;;;4956979;28;20034;-81
2022/10/12 00:33:40;;;;;;;5.32;2.72;;;8.00;99.90;;;;;;4961991;28;20085;-81
2022/10/12 00:36:15;;;;;;;6.18;2.60;;;8.00;99.90;;;;;;4958223;28;20038;-81
2022/10/12 00:38:41;;;;;;;5.63;2.60;;;8.00;99.90;;;;;;4962959;28;20023;-81
2022/10/12 00:41:07;;;;;;;7.75;3.38;;;8.00;99.90;;;;;;4958286;28;20506;-81
2022/10/12 00:43:40;;;;;;;4.88;2.30;;;7.90;99.90;;;;;;4973856;28;20026;-82
2022/10/12 00:46:34;;;;;;;5.28;2.90;;;7.90;99.90;;;;;;4975238;28;20030;-82
2022/10/12 00:49:15;;;;;;;5.72;2.85;;;8.00;99.90;;;;;;4973975;28;20038;-82
2022/10/12 00:51:43;;;;;;;4.68;3.10;;;7.90;99.90;;;;;;4975600;28;20027;-83
2022/10/12 00:54:16;;;;;;;5.80;3.28;;;7.90;99.90;;;;;;4973759;28;20382;-82
2022/10/12 00:56:45;;;;;;;5.43;3.10;;;8.00;99.90;;;;;;4974215;28;20037;-83
2022/10/12 00:59:24;;;;;;;7.63;3.05;;;8.00;99.90;;;;;;4974043;28;20130;-82
2022/10/12 01:01:55;;;;;;;4.60;2.55;;;7.90;99.90;;;;;;4973925;28;20382;-83
2022/10/12 01:04:22;;;;;;;6.55;2.67;;;7.90;99.90;;;;;;4973987;28;20029;-81
2022/10/12 01:06:49;;;;;;;6.00;2.70;;;7.90;99.90;;;;;;4941824;28;20118;-82
2022/10/12 01:09:15;;;;;;;7.50;3.17;;;7.90;99.90;;;;;;4973678;28;20550;-82
2022/10/12 01:11:41;;;;;;;4.85;2.78;;;8.00;99.90;;;;;;4957769;28;20082;-82
2022/10/12 01:14:12;;;;;;;6.63;2.55;;;7.90;99.90;;;;;;4973325;28;20085;-82
2022/10/12 01:16:47;;;;;;;6.43;2.60;;;7.90;99.90;;;;;;4973655;28;20031;-82
2022/10/12 01:19:25;;;;;;;4.93;2.25;;;7.90;99.90;;;;;;4973646;28;20486;-82
2022/10/12 01:22:01;;;;;;;4.82;2.20;;;7.90;99.90;;;;;;4974011;28;20466;-83
2022/10/12 01:24:59;;;;;;;4.93;2.13;;;7.90;99.90;;;;;;4958341;28;20038;-82
2022/10/12 01:27:33;;;;;;;4.05;2.13;;;7.90;99.90;;;;;;4973761;28;20074;-82
2022/10/12 01:30:29;;;;;;;5.88;2.20;;;7.80;99.90;;;;;;4974586;28;20027;-83
2022/10/12 01:33:14;;;;;;;5.93;2.20;;;7.80;99.90;;;;;;4975827;28;20047;-83
2022/10/12 01:35:48;;;;;;;5.25;2.28;;;7.80;99.90;;;;;;4982124;28;20037;-83
2022/10/12 01:38:35;;;;;;;4.75;2.50;;;7.80;99.90;;;;;;4997475;28;20129;-79
2022/10/12 01:41:09;;;;;;;5.90;2.40;;;7.80;99.90;;;;;;5000592;28;20022;-82
2022/10/12 01:43:38;;;;;;;5.18;2.63;;;7.80;99.90;;;;;;4987573;28;20061;-82
2022/10/12 01:46:25;;;;;;;6.32;2.55;;;7.70;99.90;;;;;;4995249;28;20066;-81
2022/10/12 01:49:00;;;;;;;6.40;3.13;;;7.80;99.90;;;;;;4978152;28;20419;-83
2022/10/12 01:52:04;;;;;;;5.25;2.67;;;7.70;99.90;;;;;;4962192;28;20027;-82
2022/10/12 01:54:44;;;;;;;7.47;3.00;;;7.70;99.90;;;;;;4978274;28;20026;-82
2022/10/12 01:57:49;;;;;;;4.80;2.78;;;7.70;99.90;;;;;;4978480;28;20043;-82
2022/10/12 02:00:16;;;;;;;7.13;2.88;;;7.70;99.90;;;;;;4970055;28;20042;-82
2022/10/12 02:02:54;;;;;;;6.00;2.88;;;7.60;99.90;;;;;;4993909;28;20439;-81
2022/10/12 02:05:40;;;;;;;8.63;3.15;;;7.60;99.90;;;;;;4976457;28;20032;-82
2022/10/12 02:08:21;;;;;;;5.13;2.65;;;7.60;99.90;;;;;;4975075;28;20023;-81
2022/10/12 02:10:52;;;;;;;6.88;2.85;;;7.60;99.90;;;;;;4993140;28;20499;-81
2022/10/12 02:13:20;;;;;;;6.35;2.65;;;7.60;99.90;;;;;;4980490;28;20023;-82
2022/10/12 02:15:48;;;;;;;5.63;2.65;;;7.60;99.90;;;;;;4974421;28;20125;-82
2022/10/12 02:18:18;;;;;;;6.53;2.90;;;7.60;99.90;;;;;;4968016;28;20125;-81
2022/10/12 02:20:53;;;;;;;5.40;2.83;;;7.60;99.90;;;;;;4960899;28;20073;-82
2022/10/12 02:23:22;;;;;;;6.82;2.38;;;7.60;99.90;;;;;;4977802;28;20050;-82
2022/10/12 02:25:53;;;;;;;4.30;2.40;;;7.60;99.90;;;;;;4963976;28;20030;-82
2022/10/12 02:28:22;;;;;;;5.13;2.47;;;7.60;99.90;;;;;;4976754;28;20034;-81
2022/10/12 02:31:09;;;;;;;5.20;2.42;;;7.50;99.90;;;;;;4977573;28;20039;-82
2022/10/12 02:33:55;;;;;;;5.72;2.42;;;7.50;99.90;;;;;;4977114;28;20497;-82
2022/10/12 02:36:48;;;;;;;5.57;2.65;;;7.60;99.90;;;;;;4976541;28;20030;-82
2022/10/12 02:39:34;;;;;;;5.65;2.72;;;7.50;99.90;;;;;;4982304;28;20396;-82
2022/10/12 02:42:07;;;;;;;5.07;2.22;;;7.50;99.90;;;;;;4969741;28;20059;-82
2022/10/12 02:44:37;;;;;;;3.90;2.08;;;7.50;99.90;;;;;;4973493;28;20482;-82
2022/10/12 02:47:06;;;;;;;5.38;2.38;;;7.50;99.90;;;;;;4977031;28;20034;-81
2022/10/12 02:49:34;;;;;;;4.18;2.20;;;7.50;99.90;;;;;;4976165;28;20037;-81
2022/10/12 02:52:02;;;;;;;3.85;1.77;;;7.50;99.90;;;;;;4975857;28;20011;-82
2022/10/12 02:54:30;;;;;;;5.38;2.50;;;7.50;99.90;;;;;;4976607;28;20039;-82
2022/10/12 02:56:55;;;;;;;4.07;1.90;;;7.50;99.90;;;;;;4959837;28;20027;-81
2022/10/12 02:59:22;;;;;;;3.80;1.58;;;7.50;99.90;;;;;;4977120;28;20031;-82
2022/10/12 03:01:49;;;;;;;5.05;2.10;;;7.50;99.90;;;;;;4975527;28;20034;-82
2022/10/12 03:04:15;;;;;;;5.80;2.55;;;7.40;99.90;;;;;;4975635;28;20034;-82
2022/10/12 03:06:44;;;;;;;3.90;2.08;;;7.40;99.90;;;;;;4959536;28;20086;-82
2022/10/12 03:09:09;;;;;;;5.43;2.85;;;7.40;99.90;;;;;;4976997;28;20045;-82
2022/10/12 03:11:42;;;;;;;5.50;2.20;;;7.40;99.90;;;;;;4976632;28;20053;-82
2022/10/12 03:14:10;;;;;;;4.82;2.40;;;7.30;99.90;;;;;;4975602;28;20082;-82
2022/10/12 03:16:36;;;;;;;4.60;2.40;;;7.30;99.90;;;;;;4964457;28;20032;-81
2022/10/12 03:19:02;;;;;;;3.20;1.80;;;7.30;99.90;;;;;;4959184;28;20487;-82
2022/10/12 03:21:29;;;;;;;5.93;2.38;;;7.30;99.90;;;;;;4975442;28;20053;-82
2022/10/12 03:23:55;;;;;;;4.03;1.75;;;7.30;99.90;;;;;;4982879;28;20042;-82
2022/10/12 03:26:20;;;;;;;4.45;2.13;;;7.30;99.90;;;;;;4998639;28;20018;-81
2022/10/12 03:28:46;;;;;;;3.42;2.00;;;7.30;99.90;;;;;;4999304;28;20022;-82
2022/10/12 03:31:12;;;;;;;4.60;2.28;;;7.30;99.90;;;;;;4966772;28;20038;-82
2022/10/12 03:33:38;;;;;;;5.15;2.30;;;7.20;99.90;;;;;;4976614;28;20031;-82
2022/10/12 03:36:06;;;;;;;4.72;2.30;;;7.20;99.90;;;;;;4976003;28;20027;-82
2022/10/12 03:38:31;;;;;;;4.28;2.13;;;7.20;99.90;;;;;;4975297;28;20042;-82
2022/10/12 03:41:02;;;;;;;3.92;1.80;;;7.10;99.90;;;;;;4975260;28;20015;-81
2022/10/12 03:43:28;;;;;;;4.60;2.42;;;7.10;99.90;;;;;;4975225;28;20035;-82
2022/10/12 03:45:58;;;;;;;4.30;1.83;;;7.10;99.90;;;;;;4959172;28;20545;-82
2022/10/12 03:48:27;;;;;;;3.50;2.03;;;7.10;99.90;;;;;;4975082;28;20073;-82
2022/10/12 03:50:53;;;;;;;5.88;2.90;;;7.00;99.90;;;;;;4958656;28;20086;-82
2022/10/12 03:53:19;;;;;;;4.15;1.90;;;6.90;99.90;;;;;;4974958;28;20022;-82
2022/10/12 03:55:48;;;;;;;5.57;2.28;;;6.90;99.90;;;;;;4958485;28;20470;-83
2022/10/12 03:58:17;;;;;;;4.85;2.17;;;6.90;99.90;;;;;;4974997;28;20147;-82
2022/10/12 04:01:06;;;;;;;5.03;2.33;;;6.80;99.90;;;;;;4974749;28;20038;-82
2022/10/12 04:03:37;;;;;;;5.43;2.53;;;6.80;99.90;;;;;;4941410;29;20028;-82
2022/10/12 04:06:07;;;;;;;6.75;2.30;;;6.80;99.90;;;;;;4958553;28;20113;-82
2022/10/12 04:08:35;;;;;;;4.70;2.10;;;6.70;99.90;;;;;;4974643;28;20027;-82
2022/10/12 04:11:01;;;;;;;6.00;2.17;;;6.70;99.90;;;;;;4970864;28;20047;-82
2022/10/12 04:13:27;;;;;;;6.47;2.22;;;6.70;99.90;;;;;;4968360;28;20448;-82
2022/10/12 04:15:54;;;;;;;4.03;2.00;;;6.70;99.90;;;;;;4975788;28;20026;-82
2022/10/12 04:18:24;;;;;;;4.90;2.63;;;6.60;99.90;;;;;;4975533;28;20050;-83
2022/10/12 04:20:50;;;;;;;4.25;1.75;;;6.60;99.90;;;;;;4975011;28;20041;-82
2022/10/12 04:23:17;;;;;;;4.95;2.17;;;6.60;99.90;;;;;;4974345;28;20101;-82
2022/10/12 04:25:47;;;;;;;6.60;2.45;;;6.50;99.90;;;;;;4974407;28;20035;-83
2022/10/12 04:28:12;;;;;;;5.25;2.10;;;6.50;99.90;;;;;;4974591;28;20023;-83
2022/10/12 04:30:41;;;;;;;6.30;2.33;;;6.40;99.90;;;;;;4974435;28;20034;-81
2022/10/12 04:33:12;;;;;;;4.80;2.03;;;6.50;99.90;;;;;;4974335;28;20382;-82
2022/10/12 04:35:37;;;;;;;4.63;2.00;;;6.40;99.90;;;;;;4975257;28;20121;-82
2022/10/12 04:38:04;;;;;;;4.13;1.90;;;6.40;99.90;;;;;;4961358;28;20107;-83
2022/10/12 04:40:38;;;;;;;5.15;2.70;;;6.40;99.90;;;;;;4974123;28;20023;-83
2022/10/12 04:43:07;;;;;;;4.78;2.30;;;6.30;99.90;;;;;;4959265;28;20459;-82
2022/10/12 04:45:36;;;;;;;5.20;2.10;;;6.30;99.90;;;;;;4973288;28;20097;-84
2022/10/12 04:48:07;;;;;;;6.93;2.28;;;6.30;99.90;;;;;;4974634;28;20026;-83
2022/10/12 04:50:35;;;;;;;4.80;2.30;;;6.20;99.90;;;;;;4972469;28;20181;-83
2022/10/12 04:53:07;;;;;;;5.82;2.22;;;6.20;99.90;;;;;;4972257;28;20023;-83
2022/10/12 04:55:38;;;;;;;4.03;1.80;;;6.20;99.90;;;;;;4980460;28;20110;-83
2022/10/12 04:58:08;;;;;;;5.13;2.00;;;6.20;99.90;;;;;;4976797;28;20059;-84
2022/10/12 05:00:35;;;;;;;4.35;1.88;;;6.20;99.90;;;;;;4973960;28;20035;-84
2022/10/12 05:03:09;;;;;;;6.13;2.05;;;6.20;99.90;;;;;;4955999;28;20035;-83
2022/10/12 05:05:36;;;;;;;4.90;2.00;;;6.20;99.90;;;;;;4989029;28;20463;-83
2022/10/12 05:08:03;;;;;;;5.05;2.20;;;6.20;99.90;;;;;;4959240;28;20102;-83
2022/10/12 05:10:30;;;;;;;5.20;2.55;;;6.20;99.90;;;;;;4972210;28;20051;-82
2022/10/12 05:13:02;;;;;;;5.50;2.47;;;6.20;99.90;;;;;;5017405;28;20265;-83
2022/10/12 05:15:39;;;;;;;3.75;2.08;;;6.20;99.90;;;;;;5000145;28;20079;-84
2022/10/12 05:18:17;;;;;;;4.72;2.20;;;6.20;99.90;;;;;;4979620;28;20031;-82
2022/10/12 05:20:47;;;;;;;5.18;2.70;;;6.20;99.90;;;;;;4977425;28;20110;-82
2022/10/12 05:26:16;;;;;;;;;;;;;;;;;;;;;
2022/10/12 05:28:42;;;;;;;4.30;2.03;;;6.20;99.90;;;;;;4976292;28;20022;-84
2022/10/12 05:31:12;;;;;;;4.13;1.98;;;6.20;99.90;;;;;;4976851;28;20114;-82
2022/10/12 05:33:41;;;;;;;4.72;2.30;;;6.20;99.90;;;;;;4960595;28;20094;-82
2022/10/12 05:36:08;;;;;;;4.50;2.28;;;6.20;99.90;;;;;;4976957;28;20039;-83
2022/10/12 05:38:34;;;;;;;4.35;1.77;;;6.20;99.90;;;;;;4975897;28;20093;-83
2022/10/12 05:41:02;;;;;;;3.60;2.25;;;6.10;99.90;;;;;;4976293;28;20406;-82
2022/10/12 05:43:29;;;;;;;6.50;2.00;;;6.10;99.90;;;;;;4975890;28;20034;-83
2022/10/12 05:45:55;;;;;;;4.60;2.22;;;6.10;99.90;;;;;;4977470;28;20050;-83
2022/10/12 05:48:21;;;;;;;6.45;2.20;;;6.10;99.90;;;;;;4975906;28;20561;-83
2022/10/12 05:51:04;;;;;;;4.22;2.30;;;6.10;99.90;;;;;;4959496;28;20041;-83
2022/10/12 05:53:40;;;;;;;4.82;2.15;;;6.10;99.90;;;;;;4992107;28;20061;-83
2022/10/12 05:56:10;;;;;;;6.15;2.30;;;6.10;99.90;;;;;;4977454;28;20058;-83
2022/10/12 05:58:41;;;;;;;6.38;2.40;;;6.10;99.90;;;;;;4976501;28;20390;-84
2022/10/12 06:01:09;;;;;;;5.63;2.30;;;6.10;99.90;;;;;;4959737;28;20379;-83
2022/10/12 06:04:11;;;;;;;4.68;2.42;;;6.20;99.90;;;;;;4976076;28;20097;-83
2022/10/12 06:06:38;;;;;;;4.30;2.25;;;6.20;99.90;;;;;;4976763;28;20050;-83
2022/10/12 06:09:05;;;;;;;4.25;2.30;;;6.20;99.90;;;;;;4976929;28;20011;-83
2022/10/12 06:12:08;;;;;;;6.40;2.78;;;6.30;99.90;;;;;;4976348;28;20054;-83
2022/10/12 06:15:00;;;;;;;5.80;2.60;;;6.40;99.90;;;;;;4983596;28;20063;-84
2022/10/12 06:17:38;;;;;;;5.18;2.53;;;6.40;99.90;;;;;;4984775;28;20047;-84
2022/10/12 06:20:05;;;;;;;4.95;2.60;;;6.50;99.90;;;;;;4961352;28;20540;-82
2022/10/12 06:22:39;;;;;;;4.88;2.88;;;6.50;99.90;;;;;;4976407;28;20086;-82
2022/10/12 06:25:34;;;;;;;;;;;6.60;99.90;;;;;;4977094;28;20030;-82
2022/10/12 06:28:39;;;;;;;;;;;6.60;99.90;;;;;;4973826;28;20008;-84
2022/10/12 06:31:02;;;;;;;4.35;2.20;;;6.70;99.90;;;;;;4974022;28;19907;-82
2022/10/12 06:33:34;;;;;;;5.43;2.55;;;6.80;99.90;;;;;;4976339;28;20023;-83
2022/10/12 06:36:22;;;;;;;5.30;2.23;;;6.90;99.90;;;;;;4959941;28;20471;-83
2022/10/12 06:38:51;;;;;;;3.78;2.33;;;7.00;99.90;;;;;;4992638;28;20332;-84
2022/10/12 06:41:20;;;;;;;6.38;2.50;;;7.00;99.90;;;;;;4976153;28;20031;-84
2022/10/12 06:43:50;;;;;;;5.35;2.65;;;7.10;99.90;;;;;;4960272;28;20027;-83
2022/10/12 06:46:17;;;;;;;6.63;2.88;;;7.10;99.90;;;;;;4975947;28;20027;-83
2022/10/12 06:48:45;;;;;;;4.28;2.38;;;7.10;99.90;;;;;;4976090;28;20027;-83
2022/10/12 06:51:12;;;;;;;6.50;2.80;;;7.20;99.90;;;;;;4978494;28;20027;-82
2022/10/12 06:53:54;;;;;;;5.10;2.45;;;7.20;99.90;;;;;;5003559;28;20054;-83
2022/10/12 06:56:26;;;;;;;6.57;2.80;;;7.30;99.90;;;;;;4998083;28;20045;-84
2022/10/12 06:59:04;;;;;;;5.13;2.90;;;7.30;99.90;;;;;;5000258;28;20043;-82
2022/10/12 07:01:35;;;;;;;4.63;2.60;;;7.30;99.90;;;;;;4979625;28;20017;-83
2022/10/12 07:04:11;;;;;;;4.40;2.47;;;7.40;99.90;;;;;;4970207;28;20026;-83
2022/10/12 07:06:37;;;;;;;4.70;2.40;;;7.50;99.90;;;;;;4979248;28;20070;-83
2022/10/12 07:09:12;;;;;;;4.82;2.90;;;7.50;99.90;;;;;;4979051;28;20047;-84
2022/10/12 07:11:40;;;;;;;4.03;2.50;;;7.60;99.90;;;;;;4963822;28;20204;-84
2022/10/12 07:14:06;;;;;;;5.25;2.72;;;7.60;99.90;;;;;;4959455;28;20027;-83
2022/10/12 07:16:46;;;;;;;6.00;3.28;;;7.70;99.90;;;;;;4975597;28;20466;-84
2022/10/12 07:19:17;;;;;;;6.53;2.97;;;7.80;99.90;;;;;;4976888;28;20027;-83
2022/10/12 07:21:43;;;;;;;6.55;2.75;;;7.90;99.90;;;;;;4976076;28;20027;-83
2022/10/12 07:24:17;;;;;;;7.22;3.05;;;8.00;99.90;;;;;;4975466;28;20015;-83
2022/10/12 07:26:56;;;;;;;5.60;3.42;;;8.10;99.90;;;;;;4957556;28;20061;-83
2022/10/12 07:29:25;;;;;;;5.55;3.58;;;8.10;99.90;;;;;;4975373;28;20542;-83
2022/10/12 07:31:53;;;;;;;5.18;2.85;;;8.10;99.90;;;;;;4974916;28;20073;-83
2022/10/12 07:34:22;;;;;;;4.22;2.65;;;8.20;99.90;;;;;;4975238;28;20042;-84
2022/10/12 07:37:01;;;;;;;7.72;3.33;;;8.20;99.90;;;;;;4975384;28;20034;-84
2022/10/12 07:39:48;;;;;;;6.00;3.03;;;8.20;99.90;;;;;;4975277;28;20066;-83
2022/10/12 07:42:15;;;;;;;4.82;3.15;;;8.20;99.90;;;;;;4976633;28;20023;-83
2022/10/12 07:44:47;;;;;;;5.70;3.28;;;8.20;99.90;;;;;;4975202;28;20058;-84
2022/10/12 07:47:19;;;;;;;8.77;4.20;;;8.20;99.90;;;;;;4975466;28;20034;-83
2022/10/12 07:49:47;;;;;;;6.60;4.43;;;8.10;99.90;;;;;;4974210;28;20062;-84
2022/10/12 07:52:20;;;;;;;6.50;3.58;;;8.10;99.90;;;;;;4991097;28;20049;-84
2022/10/12 07:54:58;;;;;;;6.10;3.22;;;8.00;99.90;;;;;;4975009;28;20027;-83
2022/10/12 07:57:45;;;;;;;6.78;3.70;;;8.00;99.90;;;;;;4976017;28;20035;-83
2022/10/12 08:00:11;;;;;;;5.68;3.60;;;8.00;99.90;;;;;;4975334;28;20033;-82
2022/10/12 08:03:32;;;;;;;;;;;;;;;;;;;;;
2022/10/12 08:07:11;;;;;;;8.05;3.35;;;8.00;99.90;;;;;;4967349;28;20041;-84
2022/10/12 08:10:22;;;;;;;;;;;;;;;;;;;;;
2022/10/12 08:13:39;;;;;;;;;;;;;;;;;;;;;
2022/10/12 08:20:54;;;;;;;;;;;;;;;;;;;;;
2022/10/12 08:27:29;;;;;;;;;;;;;;;;;;;;;
2022/10/12 08:37:06;;;;;;;;;;;;;;;;;;;;;
2022/10/12 08:44:00;;;;;;;;;;;;;;;;;;;;;
2022/10/12 08:50:44;;;;;;;7.30;3.58;;;10.50;99.90;;;;;;4936869;28;20015;-84
2022/10/12 08:54:03;;;;;;;7.28;3.80;;;10.60;99.90;;;;;;4932759;28;20079;-84
2022/10/12 08:57:16;;;;;;;8.52;3.88;;;10.70;99.90;;;;;;4927536;29;20040;-84
2022/10/12 09:00:01;;;;;;;7.35;3.80;;;10.80;99.90;;;;;;4932174;29;20054;-84
2022/10/12 09:03:28;;;;;;;8.55;3.92;;;10.90;99.90;;;;;;4936719;29;20118;-83
2022/10/12 09:06:16;;;;;;;6.72;4.00;;;11.00;99.90;;;;;;4903170;29;20032;-84
2022/10/12 09:09:16;;;;;;;7.97;4.32;;;11.20;99.90;;;;;;4921299;29;20080;-83
2022/10/12 09:12:22;;;;;;;6.97;3.88;;;12.00;99.90;;;;;;4945058;28;20121;-82
2022/10/12 09:18:58;;;;;;;7.10;3.40;;;15.40;99.90;;;;;;4963622;28;20213;-84
2022/10/12 09:22:13;;;;;;;;;;;;;;;;;;;;;
2022/10/12 09:24:55;;;;;;;6.38;3.20;;;19.00;99.90;;;;;;4929110;28;20043;-83
2022/10/12 09:27:57;;;;;;;7.75;3.30;;;20.20;99.90;;;;;;4966436;28;20083;-83
2022/10/12 09:34:05;;;;;;;6.43;3.20;;;21.90;99.90;;;;;;4954446;28;20419;-84
2022/10/12 09:36:35;;;;;;;7.22;2.92;;;22.70;99.90;;;;;;4967208;28;20896;-84
2022/10/12 09:39:16;;;;;;;5.97;3.15;;;23.10;99.90;;;;;;4969661;28;20027;-84
2022/10/12 09:41:59;;;;;;;;;;;;;;;;;;;;;
2022/10/12 09:45:00;;;;;;;;;;;23.40;99.90;;;;;;4968249;28;20034;-84
2022/10/12 09:48:07;;;;;;;5.60;3.28;;;23.70;99.90;;;;;;4927574;29;20432;-84
2022/10/12 09:50:47;;;;;;;5.60;3.00;;;24.10;99.90;;;;;;4966152;28;20162;-83
2022/10/12 09:54:06;;;;;;;;;;;;;;;;;;;;;
2022/10/12 09:57:33;;;;;;;;;;;;;;;;;;;;;
2022/10/12 10:00:29;;;;;;;;;;;;;;;;;;;;;
2022/10/12 10:03:37;;;;;;;6.63;3.22;;;25.30;99.90;;;;;;4972027;28;20026;-82
2022/10/12 10:06:48;;;;;;;6.32;2.90;;;25.50;99.90;;;;;;4985708;28;20110;-84
2022/10/12 10:10:11;;;;;;;6.50;2.90;;;25.80;99.90;;;;;;4967797;28;20034;-83
2022/10/12 10:13:00;;;;;;;6.32;2.75;;;26.10;99.90;;;;;;4955345;28;20162;-84
2022/10/12 10:15:37;;;;;;;6.72;2.70;;;26.30;99.90;;;;;;4971194;28;20473;-82
2022/10/12 10:18:37;;;;;;;6.47;3.00;;;26.30;99.80;;;;;;4969598;28;20034;-83
2022/10/12 10:21:33;;;;;;;6.32;3.22;;;26.40;99.20;;;;;;4955616;28;20487;-83
2022/10/12 10:24:21;;;;;;;5.57;2.90;;;26.60;98.60;;;;;;4967708;28;20066;-84
2022/10/12 10:27:13;;;;;;;4.75;2.95;;;26.60;98.20;;;;;;4958455;28;20041;-83
2022/10/12 10:29:42;;;;;;;5.80;2.95;;;26.60;97.80;;;;;;4970264;28;20355;-83
2022/10/12 10:32:14;;;;;;;8.90;3.40;;;26.40;97.60;;;;;;4971892;28;20027;-83
2022/10/12 10:34:54;;;;;;;;;;;;;;;;;;;;;
2022/10/12 10:38:14;;;;;;;;;;;;;;;;;;;;;
2022/10/12 10:41:13;;;;;;;7.22;3.85;;;25.10;97.50;;;;;;4984136;28;20057;-82
2022/10/12 10:43:48;;;;;;;6.55;3.88;;;24.20;97.90;;;;;;4975655;28;20011;-84
2022/10/12 10:46:29;;;;;;;6.35;3.47;;;23.90;97.80;;;;;;4992688;28;20062;-82
2022/10/12 10:49:10;;;;;;;6.25;3.95;;;24.20;97.80;;;;;;4995428;28;20501;-85
2022/10/12 10:52:22;;;;;;;8.20;3.85;;;24.70;97.20;;;;;;4973374;28;20038;-83
2022/10/12 10:55:12;;;;;;;8.32;4.10;;;24.80;96.90;;;;;;4969743;28;20592;-83
2022/10/12 11:01:26;;;;;;;7.57;3.95;;;25.60;96.40;;;;;;4936837;28;20035;-83
2022/10/12 11:07:46;;;;;;;;;;;;;;;;;;;;;
2022/10/12 11:11:06;;;;;;;6.93;3.20;;;25.30;96.20;;;;;;4965230;28;20083;-82
2022/10/12 11:14:50;;;;;;;6.88;3.47;;;25.60;95.90;;;;;;4936884;28;20130;-82
2022/10/12 11:17:55;;;;;;;6.43;3.90;;;25.90;95.50;;;;;;4939073;29;20094;-83
2022/10/12 11:21:12;;;;;;;;;;;;;;;;;;;;;
2022/10/12 11:27:12;;;;;;;6.70;3.17;;;27.40;94.50;;;;;;4959850;28;20447;-83
2022/10/12 11:29:54;;;;;;;9.10;3.45;;;27.90;93.70;;;;;;4962925;28;20049;-83
2022/10/12 11:32:29;;;;;;;9.00;4.38;;;28.40;93.20;;;;;;4971965;28;20031;-82
2022/10/12 11:35:05;;;;;;;6.47;3.28;;;28.50;92.10;;;;;;4970319;28;20030;-82
2022/10/12 11:38:22;;;;;;;5.68;3.60;;;28.40;92.80;;;;;;4954697;28;20030;-83
2022/10/12 11:40:53;;;;;;;7.57;3.50;;;28.50;92.80;;;;;;4951344;28;20042;-81
2022/10/12 11:44:01;;;;;;;6.78;3.30;;;28.50;92.00;;;;;;4970326;28;20039;-81
2022/10/12 11:46:34;;;;;;;6.03;3.15;;;28.80;91.60;;;;;;4969670;28;20034;-81
2022/10/12 11:49:20;;;;;;;5.13;3.13;;;29.20;91.60;;;;;;4969894;28;20073;-82
2022/10/12 11:51:54;;;;;;;6.45;3.80;;;29.30;91.40;;;;;;4981939;28;20034;-83
2022/10/12 11:54:26;;;;;;;7.95;3.67;;;29.40;90.60;;;;;;4963216;28;20026;-85
2022/10/12 11:57:14;;;;;;;7.30;3.40;;;29.40;90.70;;;;;;4970236;28;20037;-86
2022/10/12 11:59:52;;;;;;;7.35;4.13;;;29.30;90.50;;;;;;4967019;28;20094;-84
2022/10/12 12:05:32;;;;;;;7.43;4.28;;;27.20;91.20;;;;;;4970349;28;20066;-84
2022/10/12 12:07:59;;;;;;;6.32;3.65;;;26.30;91.50;;;;;;4970475;28;20074;-83
2022/10/12 12:10:33;;;;;;;6.88;3.70;;;25.10;92.10;;;;;;4967902;28;20082;-84
2022/10/12 12:13:20;;;;;;;6.20;4.15;;;24.20;93.20;;;;;;4970571;28;20059;-85
2022/10/12 12:15:46;;;;;;;9.43;4.55;;;23.40;94.10;;;;;;4969606;28;20034;-82
2022/10/12 12:18:24;;;;;;;8.02;4.97;;;22.70;94.90;;;;;;4965845;28;20031;-82
2022/10/12 12:21:09;;;;;;;7.00;3.67;;;22.40;95.60;;;;;;4967826;28;20023;-82
2022/10/12 12:23:54;;;;;;;8.15;4.57;;;22.20;95.50;;;;;;4966227;28;20027;-84
2022/10/12 12:26:45;;;;;;;8.75;4.45;;;22.90;95.90;;;;;;4976556;28;20031;-83
2022/10/12 12:29:35;;;;;;;;;;;;;;;;;;;;;
2022/10/12 12:32:26;;;;;;;6.82;3.83;;;25.80;93.90;;;;;;4970589;28;20037;-83
2022/10/12 12:34:59;;;;;;;8.13;3.83;;;26.40;93.00;;;;;;4966534;28;20132;-81
2022/10/12 12:37:30;;;;;;;8.40;4.20;;;26.10;92.60;;;;;;4970533;28;20631;-81
2022/10/12 12:40:03;;;;;;;6.75;3.75;;;25.20;93.30;;;;;;4987930;28;20034;-84
2022/10/12 12:42:33;;;;;;;8.30;4.70;;;24.00;94.00;;;;;;5004203;28;20019;-82
2022/10/12 12:45:33;;;;;;;7.68;3.70;;;23.00;94.90;;;;;;4980421;28;20019;-81
2022/10/12 12:47:59;;;;;;;7.82;3.85;;;22.10;96.00;;;;;;4976174;28;20022;-81
2022/10/12 12:50:57;;;;;;;6.80;3.83;;;21.50;97.00;;;;;;4974309;28;20046;-82
2022/10/12 12:53:23;;;;;;;6.50;3.38;;;21.10;97.70;;;;;;4965886;28;20035;-80
2022/10/12 12:56:17;;;;;;;;;;;;;;;;;;;;;
2022/10/12 12:59:27;;;;;;;5.72;2.90;;;20.40;98.60;;;;;;4979732;28;20057;-82
2022/10/12 13:02:47;;;;;;;6.38;2.70;;;20.20;99.10;;;;;;4967842;28;20038;-84
2022/10/12 13:09:21;;;;;;;5.32;1.40;;;20.00;99.40;;;;;;4964896;28;20041;-83
2022/10/12 13:11:55;;;;;;;;;;;19.80;99.90;;;;;;4968343;28;20059;-82
2022/10/12 13:14:52;;;;;;;4.20;1.90;;;19.70;99.90;;;;;;4969073;28;19956;-83
2022/10/12 13:18:10;;;;;;;5.50;2.17;;;19.70;99.70;;;;;;4982200;28;20051;-82
2022/10/12 13:20:47;;;;;;;4.70;1.90;;;19.60;99.70;;;;;;4946888;29;20065;-83
2022/10/12 13:23:21;;;;;;;3.92;2.00;;;19.60;99.90;;;;;;4966023;28;20483;-84
2022/10/12 13:25:56;;;;;;;5.22;2.72;;;20.10;99.90;;;;;;4995762;28;20027;-84
2022/10/12 13:28:26;;;;;;;5.85;3.28;;;20.20;99.90;;;;;;4968921;28;20039;-83
2022/10/12 13:31:03;;;;;;;7.03;3.15;;;20.00;99.90;;;;;;4971021;28;20042;-82
2022/10/12 13:33:50;;;;;;;5.45;2.60;;;19.70;99.90;;;;;;4972727;28;20418;-81
2022/10/12 13:36:31;;;;;;;9.52;2.85;;;19.60;99.90;;;;;;4968870;28;20521;-81
2022/10/12 13:39:17;;;;;;;3.72;1.98;;;19.50;99.90;;;;;;4972203;28;20026;-82
2022/10/12 13:41:46;;;;;;;7.57;4.20;;;19.40;99.90;;;;;;4970296;28;20034;-84
2022/10/12 13:44:33;;;;;;;5.30;3.30;;;19.10;99.90;;;;;;4967838;28;20023;-81
2022/10/12 13:47:20;;;;;;;9.07;3.85;;;18.90;99.90;;;;;;4969405;28;20043;-81
2022/10/12 13:49:46;;;;;;;7.47;3.80;;;18.80;99.90;;;;;;4983065;28;20178;-82
2022/10/12 13:52:15;;;;;;;6.00;3.60;;;18.70;99.90;;;;;;4968492;28;20027;-81
2022/10/12 13:54:50;;;;;;;6.47;3.85;;;18.60;99.90;;;;;;4972581;28;20027;-81
2022/10/12 13:57:35;;;;;;;5.00;3.03;;;18.50;99.90;;;;;;4969900;28;20539;-81
2022/10/12 14:00:23;;;;;;;4.53;2.83;;;18.50;99.90;;;;;;4969796;28;20042;-81
2022/10/12 14:03:07;;;;;;;4.45;3.10;;;18.50;99.90;;;;;;4967178;28;20533;-82
2022/10/12 14:05:45;;;;;;;6.55;3.45;;;18.40;99.90;;;;;;4971276;28;20054;-82
2022/10/12 14:08:16;;;;;;;6.95;3.63;;;18.30;99.90;;;;;;4983652;28;20126;-83
2022/10/12 14:10:48;;;;;;;8.13;4.30;;;18.20;99.90;;;;;;4968061;28;20037;-80
2022/10/12 14:13:43;;;;;;;8.55;4.38;;;18.10;99.90;;;;;;4980042;28;20043;-82
2022/10/12 14:16:13;;;;;;;5.80;3.10;;;18.00;99.90;;;;;;4956395;28;20408;-81
2022/10/12 14:18:42;;;;;;;6.88;3.50;;;18.00;99.90;;;;;;4969487;28;20035;-82
2022/10/12 14:21:25;;;;;;;6.13;3.42;;;18.00;99.90;;;;;;4970176;28;20455;-83
2022/10/12 14:23:59;;;;;;;5.43;3.33;;;18.10;99.90;;;;;;4982335;28;20027;-83
2022/10/12 14:26:37;;;;;;;7.43;3.33;;;18.20;99.90;;;;;;4967312;28;20388;-83
2022/10/12 14:29:30;;;;;;;6.05;4.05;;;18.40;99.90;;;;;;4976014;28;20395;-82
2022/10/12 14:32:02;;;;;;;6.27;3.67;;;18.30;99.90;;;;;;4969378;28;20109;-82
2022/10/12 14:34:43;;;;;;;6.05;3.65;;;18.30;99.90;;;;;;4954907;28;20043;-83
2022/10/12 14:37:09;;;;;;;7.30;3.67;;;18.20;99.90;;;;;;4985203;28;20015;-80
2022/10/12 14:39:39;;;;;;;9.30;4.50;;;18.20;99.90;;;;;;4988618;28;20065;-84
2022/10/12 14:42:27;;;;;;;7.20;3.92;;;18.10;99.90;;;;;;4977328;28;20505;-83
2022/10/12 14:45:18;;;;;;;7.55;4.10;;;18.10;99.90;;;;;;4974190;28;20039;-82
2022/10/12 14:47:44;;;;;;;7.85;4.22;;;18.10;99.90;;;;;;4968803;28;20061;-82
2022/10/12 14:50:19;;;;;;;8.82;4.35;;;17.90;99.90;;;;;;4981314;28;20035;-82
2022/10/12 14:52:52;;;;;;;6.63;3.97;;;17.90;99.90;;;;;;4964572;28;20023;-83
2022/10/12 14:55:22;;;;;;;7.38;3.80;;;18.00;99.90;;;;;;4964043;28;20066;-83
2022/10/12 14:57:54;;;;;;;7.20;3.78;;;18.00;99.90;;;;;;4985099;28;20397;-83
2022/10/12 15:00:41;;;;;;;7.38;4.43;;;17.90;99.90;;;;;;4968148;28;20034;-84
2022/10/12 15:03:16;;;;;;;7.43;3.70;;;17.90;99.90;;;;;;4969355;28;20043;-83
2022/10/12 15:06:07;;;;;;;;;;;;;;;;;;;;;
2022/10/12 15:08:34;;;;;;;6.35;3.70;;;18.10;99.90;;;;;;4967314;28;20355;-83
2022/10/12 15:11:01;;;;;;;7.05;4.13;;;18.10;99.90;;;;;;4963346;28;20027;-83